Time;durP1;ratioP1;P1;durP2;ratioP2;P2;SDS_P1;SDS_P2;PMS_P1;PMS_P2;Temp;Humidity;BMP_temperature;BMP_pressure;BME280_temperature;BME280_humidity;BME280_pressure;Samples;Min_cycle;Max_cycle;Signal;HPM_P1;HPM_P2
2023/05/21 00:01:38;;;;;;;4.72;3.85;;;;;;;;;;5054196;28;20515;-79
2023/05/21 00:04:06;;;;;;;5.63;3.90;;;;;;;;;;5055086;28;20474;-79
2023/05/21 00:06:34;;;;;;;4.53;3.90;;;;;;;;;;5054724;28;20412;-79
2023/05/21 00:09:00;;;;;;;5.72;3.97;;;;;;;;;;5038578;28;20412;-79
2023/05/21 00:11:26;;;;;;;5.00;3.90;;;;;;;;;;5038315;28;20424;-79
2023/05/21 00:13:52;;;;;;;5.70;4.00;;;;;;;;;;5055146;28;20470;-79
2023/05/21 00:16:18;;;;;;;6.25;4.13;;;;;;;;;;5038100;28;20466;-83
2023/05/21 00:18:44;;;;;;;4.57;4.13;;;;;;;;;;5054570;28;20420;-83
2023/05/21 00:21:11;;;;;;;4.75;4.28;;;;;;;;;;5054372;28;20498;-83
2023/05/21 00:23:38;;;;;;;7.07;4.15;;;;;;;;;;5054624;28;20411;-83
2023/05/21 00:26:04;;;;;;;5.45;4.30;;;;;;;;;;5037453;28;20404;-83
2023/05/21 00:28:30;;;;;;;5.38;4.05;;;;;;;;;;5037781;28;20404;-83
2023/05/21 00:30:56;;;;;;;5.97;4.20;;;;;;;;;;5037778;28;20404;-79
2023/05/21 00:33:25;;;;;;;5.65;4.32;;;;;;;;;;5037661;28;20432;-79
2023/05/21 00:35:51;;;;;;;5.72;4.43;;;;;;;;;;5038174;28;20403;-79
2023/05/21 00:38:17;;;;;;;5.40;3.92;;;;;;;;;;5037495;28;20407;-79
2023/05/21 00:40:43;;;;;;;4.88;4.38;;;;;;;;;;5037527;28;20428;-79
2023/05/21 00:43:09;;;;;;;6.20;4.30;;;;;;;;;;5054744;28;20432;-79
2023/05/21 00:45:36;;;;;;;5.32;4.40;;;;;;;;;;5037615;28;20455;-78
2023/05/21 00:48:05;;;;;;;5.93;4.27;;;;;;;;;;5036883;28;20458;-90
2023/05/21 00:50:31;;;;;;;4.77;4.37;;;;;;;;;;5021812;28;20432;-90
2023/05/21 00:52:58;;;;;;;5.03;4.47;;;;;;;;;;5053659;28;20400;-89
2023/05/21 00:55:24;;;;;;;5.57;4.70;;;;;;;;;;5053950;28;20478;-91
2023/05/21 00:57:50;;;;;;;4.95;4.40;;;;;;;;;;5036527;28;20424;-91
2023/05/21 01:00:17;;;;;;;6.70;4.57;;;;;;;;;;5030800;28;20503;-91
2023/05/21 01:02:43;;;;;;;6.65;4.90;;;;;;;;;;5054047;28;20443;-90
2023/05/21 01:05:09;;;;;;;5.70;4.80;;;;;;;;;;5054752;28;20400;-83
2023/05/21 01:07:37;;;;;;;6.22;4.60;;;;;;;;;;5037261;28;20465;-83
2023/05/21 01:10:05;;;;;;;5.70;4.75;;;;;;;;;;5043858;28;20427;-83
2023/05/21 01:12:31;;;;;;;5.28;4.80;;;;;;;;;;5053208;28;20432;-83
2023/05/21 01:14:59;;;;;;;5.07;4.57;;;;;;;;;;5036738;28;20424;-83
2023/05/21 01:17:26;;;;;;;5.50;5.00;;;;;;;;;;5053366;28;20430;-83
2023/05/21 01:19:53;;;;;;;5.67;4.90;;;;;;;;;;5052994;28;20420;-83
2023/05/21 01:22:21;;;;;;;7.18;5.10;;;;;;;;;;5053705;28;20412;-81
2023/05/21 01:24:49;;;;;;;5.28;4.78;;;;;;;;;;5047770;28;20424;-81
2023/05/21 01:27:15;;;;;;;6.10;5.20;;;;;;;;;;5034512;28;20848;-82
2023/05/21 01:29:42;;;;;;;6.00;5.10;;;;;;;;;;5048993;28;20406;-82
2023/05/21 01:32:08;;;;;;;5.47;4.97;;;;;;;;;;5053933;28;20435;-81
2023/05/21 01:34:40;;;;;;;5.60;4.93;;;;;;;;;;5052160;28;20404;-81
2023/05/21 01:37:14;;;;;;;5.85;5.25;;;;;;;;;;5046614;28;20422;-81
2023/05/21 01:39:43;;;;;;;5.27;4.87;;;;;;;;;;5039059;28;20431;-78
2023/05/21 01:42:10;;;;;;;5.57;5.07;;;;;;;;;;5053109;28;20420;-79
2023/05/21 01:44:37;;;;;;;5.55;5.05;;;;;;;;;;5046311;28;20428;-78
2023/05/21 01:47:04;;;;;;;5.68;5.13;;;;;;;;;;5052277;28;20412;-79
2023/05/21 01:49:30;;;;;;;5.68;5.15;;;;;;;;;;5052228;28;20424;-79
2023/05/21 01:51:56;;;;;;;5.57;5.07;;;;;;;;;;5039750;28;20462;-79
2023/05/21 01:54:22;;;;;;;5.60;5.03;;;;;;;;;;5032781;28;20405;-79
2023/05/21 01:56:49;;;;;;;7.07;5.15;;;;;;;;;;5032675;28;20416;-79
2023/05/21 01:59:16;;;;;;;6.00;5.50;;;;;;;;;;5033027;28;20408;-79
2023/05/21 02:01:42;;;;;;;6.35;5.32;;;;;;;;;;5033850;28;20461;-79
2023/05/21 02:04:08;;;;;;;5.82;5.25;;;;;;;;;;5049321;28;20413;-79
2023/05/21 02:06:35;;;;;;;6.20;5.20;;;;;;;;;;5049175;28;20413;-79
2023/05/21 02:09:02;;;;;;;5.80;5.20;;;;;;;;;;5033073;28;20418;-79
2023/05/21 02:11:28;;;;;;;6.00;5.40;;;;;;;;;;5049089;28;20410;-82
2023/05/21 02:13:56;;;;;;;5.90;5.40;;;;;;;;;;5032603;28;20422;-81
2023/05/21 02:16:22;;;;;;;6.70;5.22;;;;;;;;;;5032366;28;20405;-81
2023/05/21 02:18:52;;;;;;;6.22;5.45;;;;;;;;;;5033517;28;20402;-81
2023/05/21 02:21:19;;;;;;;6.63;5.60;;;;;;;;;;5033217;28;20528;-81
2023/05/21 02:23:45;;;;;;;6.95;5.32;;;;;;;;;;5032935;28;20484;-81
2023/05/21 02:26:11;;;;;;;6.05;5.45;;;;;;;;;;5032636;28;20409;-82
2023/05/21 02:28:37;;;;;;;6.68;5.75;;;;;;;;;;5044140;28;20498;-90
2023/05/21 02:31:03;;;;;;;7.70;5.68;;;;;;;;;;5051992;28;20424;-90
2023/05/21 02:33:29;;;;;;;6.43;5.70;;;;;;;;;;5035553;28;20416;-90
2023/05/21 02:35:55;;;;;;;6.32;5.50;;;;;;;;;;5035886;28;20411;-90
2023/05/21 02:38:24;;;;;;;6.60;5.70;;;;;;;;;;5053356;28;20450;-90
2023/05/21 02:40:50;;;;;;;6.17;5.57;;;;;;;;;;5052098;28;20428;-90
2023/05/21 02:43:16;;;;;;;6.70;5.88;;;;;;;;;;5052264;28;20404;-90
2023/05/21 02:45:42;;;;;;;7.47;6.20;;;;;;;;;;5060752;23;20482;-79
2023/05/21 02:48:08;;;;;;;6.97;5.90;;;;;;;;;;5071610;28;20442;-79
2023/05/21 02:50:34;;;;;;;6.63;5.90;;;;;;;;;;5071582;28;20470;-79
2023/05/21 02:53:00;;;;;;;7.03;6.10;;;;;;;;;;5049459;28;20465;-79
2023/05/21 02:55:27;;;;;;;6.88;6.20;;;;;;;;;;5046676;28;20401;-79
2023/05/21 02:57:52;;;;;;;6.50;5.90;;;;;;;;;;5035304;28;20408;-79
2023/05/21 03:00:18;;;;;;;6.83;6.13;;;;;;;;;;5045417;28;20507;-78
2023/05/21 03:02:44;;;;;;;7.47;5.80;;;;;;;;;;5049409;28;20423;-83
2023/05/21 03:05:11;;;;;;;6.78;6.00;;;;;;;;;;5054325;28;20422;-83
2023/05/21 03:07:37;;;;;;;6.70;6.00;;;;;;;;;;5054944;28;20436;-83
2023/05/21 03:10:03;;;;;;;7.28;6.20;;;;;;;;;;5055303;28;20421;-83
2023/05/21 03:12:29;;;;;;;6.70;6.10;;;;;;;;;;5039805;28;20415;-83
2023/05/21 03:14:55;;;;;;;7.25;6.35;;;;;;;;;;5055449;28;20407;-83
2023/05/21 03:17:21;;;;;;;7.82;6.20;;;;;;;;;;5038772;28;20411;-79
2023/05/21 03:19:47;;;;;;;6.73;6.13;;;;;;;;;;5050626;28;20434;-79
2023/05/21 03:22:14;;;;;;;7.15;6.35;;;;;;;;;;5058784;28;20521;-79
2023/05/21 03:24:40;;;;;;;6.75;6.15;;;;;;;;;;5055676;28;20408;-79
2023/05/21 03:27:06;;;;;;;7.03;6.32;;;;;;;;;;5055346;28;20474;-79
2023/05/21 03:29:33;;;;;;;7.22;6.47;;;;;;;;;;5055444;28;20411;-78
2023/05/21 03:32:00;;;;;;;7.07;6.25;;;;;;;;;;5055042;28;20399;-78
2023/05/21 03:34:26;;;;;;;7.05;6.35;;;;;;;;;;5055034;28;20411;-81
2023/05/21 03:36:52;;;;;;;7.00;6.30;;;;;;;;;;5055748;28;20509;-81
2023/05/21 03:39:18;;;;;;;6.78;6.18;;;;;;;;;;5038474;28;20507;-81
2023/05/21 03:41:44;;;;;;;7.40;6.70;;;;;;;;;;5038354;28;20481;-81
2023/05/21 03:44:10;;;;;;;7.38;6.68;;;;;;;;;;5038260;28;20408;-81
2023/05/21 03:46:36;;;;;;;7.00;6.40;;;;;;;;;;5056021;28;20408;-81
2023/05/21 03:49:02;;;;;;;7.47;6.68;;;;;;;;;;5038210;28;20415;-81
2023/05/21 03:51:31;;;;;;;7.37;6.67;;;;;;;;;;5054676;28;20408;-83
2023/05/21 03:53:57;;;;;;;7.87;6.20;;;;;;;;;;5048670;28;20403;-83
2023/05/21 03:56:23;;;;;;;7.40;6.60;;;;;;;;;;5054625;28;20545;-83
2023/05/21 03:58:49;;;;;;;7.32;6.63;;;;;;;;;;5054470;28;20453;-83
2023/05/21 04:01:16;;;;;;;8.40;6.83;;;;;;;;;;5057722;28;20445;-82
2023/05/21 04:03:42;;;;;;;7.25;6.55;;;;;;;;;;5057984;28;20413;-83
2023/05/21 04:06:09;;;;;;;7.97;6.88;;;;;;;;;;5047751;28;20404;-83
2023/05/21 04:08:36;;;;;;;8.70;6.88;;;;;;;;;;5072202;28;20500;-78
2023/05/21 04:11:02;;;;;;;8.50;6.78;;;;;;;;;;5057319;28;20432;-78
2023/05/21 04:13:28;;;;;;;7.53;6.77;;;;;;;;;;5055764;28;20504;-79
2023/05/21 04:15:54;;;;;;;8.82;7.50;;;;;;;;;;5053905;28;20406;-78
2023/05/21 04:18:22;;;;;;;7.70;7.00;;;;;;;;;;5057571;28;20481;-78
2023/05/21 04:20:48;;;;;;;7.70;7.10;;;;;;;;;;5042702;28;20436;-78
2023/05/21 04:23:15;;;;;;;7.93;7.13;;;;;;;;;;5052220;28;20417;-78
2023/05/21 04:25:41;;;;;;;8.18;7.40;;;;;;;;;;5072928;28;20398;-78
2023/05/21 04:28:07;;;;;;;7.55;6.85;;;;;;;;;;5043146;28;20435;-79
2023/05/21 04:30:36;;;;;;;8.65;7.40;;;;;;;;;;5064014;28;20402;-79
2023/05/21 04:33:02;;;;;;;9.90;6.80;;;;;;;;;;5057996;28;20498;-78
2023/05/21 04:35:28;;;;;;;8.02;7.32;;;;;;;;;;5075117;28;20474;-79
2023/05/21 04:37:54;;;;;;;9.15;7.13;;;;;;;;;;5057251;28;20517;-78
2023/05/21 04:40:23;;;;;;;7.80;7.20;;;;;;;;;;5074886;28;20491;-78
2023/05/21 04:42:49;;;;;;;8.07;7.28;;;;;;;;;;5046502;28;20499;-83
2023/05/21 04:45:19;;;;;;;8.05;7.25;;;;;;;;;;5052995;28;20427;-83
2023/05/21 04:47:46;;;;;;;8.15;7.40;;;;;;;;;;5074110;28;20417;-83
2023/05/21 04:50:13;;;;;;;8.35;7.63;;;;;;;;;;5040407;28;20410;-83
2023/05/21 04:52:39;;;;;;;7.97;7.18;;;;;;;;;;5057029;28;20425;-83
2023/05/21 04:55:06;;;;;;;8.10;7.30;;;;;;;;;;5067565;28;20406;-83
2023/05/21 04:57:32;;;;;;;8.02;7.22;;;;;;;;;;5050686;28;20525;-90
2023/05/21 04:59:58;;;;;;;8.03;7.30;;;;;;;;;;5066759;28;20474;-90
2023/05/21 05:02:24;;;;;;;10.00;7.20;;;;;;;;;;5068370;28;20459;-90
2023/05/21 05:04:50;;;;;;;9.07;7.00;;;;;;;;;;5045913;28;20413;-91
2023/05/21 05:07:16;;;;;;;8.38;7.45;;;;;;;;;;5066288;28;20481;-90
2023/05/21 05:09:42;;;;;;;8.07;7.30;;;;;;;;;;5047397;28;20397;-90
2023/05/21 05:12:08;;;;;;;8.20;7.35;;;;;;;;;;5042772;28;20445;-90
2023/05/21 05:14:34;;;;;;;8.65;7.85;;;;;;;;;;5051993;28;20406;-78
2023/05/21 05:17:01;;;;;;;8.40;7.60;;;;;;;;;;5045762;28;20418;-78
2023/05/21 05:19:27;;;;;;;8.45;7.55;;;;;;;;;;5063838;28;20406;-78
2023/05/21 05:21:53;;;;;;;9.57;7.87;;;;;;;;;;5045111;28;20553;-81
2023/05/21 05:24:19;;;;;;;8.43;7.63;;;;;;;;;;5050545;28;20481;-81
2023/05/21 05:26:45;;;;;;;8.85;7.93;;;;;;;;;;5061490;28;20410;-81
2023/05/21 05:29:11;;;;;;;8.67;7.50;;;;;;;;;;5063319;28;20453;-81
2023/05/21 05:31:37;;;;;;;9.57;7.40;;;;;;;;;;5044433;28;20445;-78
2023/05/21 05:34:03;;;;;;;8.48;7.57;;;;;;;;;;5063849;28;20415;-79
2023/05/21 05:36:30;;;;;;;8.20;7.40;;;;;;;;;;5045000;28;20419;-78
2023/05/21 05:38:56;;;;;;;8.93;7.82;;;;;;;;;;5061825;28;20402;-78
2023/05/21 05:41:22;;;;;;;8.88;7.63;;;;;;;;;;5046245;28;20459;-79
2023/05/21 05:43:49;;;;;;;8.27;7.47;;;;;;;;;;5047162;28;20406;-78
2023/05/21 05:46:15;;;;;;;8.90;8.00;;;;;;;;;;5051433;28;20432;-79
2023/05/21 05:48:41;;;;;;;8.95;8.05;;;;;;;;;;5056532;28;20411;-90
2023/05/21 05:51:07;;;;;;;9.45;7.50;;;;;;;;;;5043330;28;20404;-90
2023/05/21 05:53:33;;;;;;;8.63;7.83;;;;;;;;;;5046435;28;20415;-90
2023/05/21 05:55:59;;;;;;;9.30;8.30;;;;;;;;;;5060097;28;20423;-90
2023/05/21 05:58:25;;;;;;;9.57;7.78;;;;;;;;;;5041738;28;20411;-89
2023/05/21 06:00:51;;;;;;;8.50;7.70;;;;;;;;;;5063672;28;20426;-89
2023/05/21 06:03:17;;;;;;;8.60;7.80;;;;;;;;;;5047100;28;20415;-90
2023/05/21 06:05:43;;;;;;;9.27;7.97;;;;;;;;;;5045795;28;20402;-81
2023/05/21 06:08:10;;;;;;;10.25;7.90;;;;;;;;;;5063048;28;20409;-81
2023/05/21 06:10:36;;;;;;;8.48;7.57;;;;;;;;;;5060944;28;20404;-81
2023/05/21 06:13:02;;;;;;;8.77;7.72;;;;;;;;;;5046312;28;20403;-81
2023/05/21 06:15:31;;;;;;;8.80;7.90;;;;;;;;;;5046010;28;20403;-81
2023/05/21 06:17:57;;;;;;;9.10;8.10;;;;;;;;;;5043847;28;20454;-81
2023/05/21 06:20:23;;;;;;;8.97;7.93;;;;;;;;;;5043823;28;20427;-81
2023/05/21 06:22:49;;;;;;;9.40;8.18;;;;;;;;;;5048095;28;20427;-90
2023/05/21 06:25:15;;;;;;;9.07;8.18;;;;;;;;;;5044587;28;20404;-89
2023/05/21 06:27:41;;;;;;;9.30;8.40;;;;;;;;;;5047650;28;20415;-90
2023/05/21 06:30:07;;;;;;;9.25;7.75;;;;;;;;;;5042401;28;20494;-87
2023/05/21 06:32:33;;;;;;;8.52;7.72;;;;;;;;;;5024492;28;20415;-89
2023/05/21 06:34:59;;;;;;;10.02;7.93;;;;;;;;;;5063463;28;20403;-90
2023/05/21 06:37:25;;;;;;;8.57;7.78;;;;;;;;;;5064556;28;20407;-79
2023/05/21 06:39:51;;;;;;;10.13;7.50;;;;;;;;;;5053168;28;20475;-78
2023/05/21 06:42:17;;;;;;;8.55;7.70;;;;;;;;;;5062687;28;20544;-78
2023/05/21 06:44:43;;;;;;;9.15;7.78;;;;;;;;;;5047772;28;20431;-78
2023/05/21 06:47:09;;;;;;;8.63;7.82;;;;;;;;;;5044238;28;20418;-79
2023/05/21 06:49:35;;;;;;;10.43;8.15;;;;;;;;;;5063207;28;20398;-78
2023/05/21 06:52:02;;;;;;;9.68;7.65;;;;;;;;;;5057822;28;20419;-78
2023/05/21 06:54:28;;;;;;;10.73;7.88;;;;;;;;;;5063673;28;20403;-90
2023/05/21 06:56:54;;;;;;;9.90;8.23;;;;;;;;;;5049913;28;20409;-89
2023/05/21 06:59:20;;;;;;;8.50;7.70;;;;;;;;;;5066996;28;20433;-89
2023/05/21 07:01:46;;;;;;;8.25;7.45;;;;;;;;;;5063005;28;20424;-89
2023/05/21 07:04:12;;;;;;;9.48;8.02;;;;;;;;;;5064009;28;20486;-89
2023/05/21 07:06:38;;;;;;;10.13;7.70;;;;;;;;;;5060546;28;20431;-90
2023/05/21 07:09:04;;;;;;;8.93;8.10;;;;;;;;;;5061448;28;20399;-90
2023/05/21 07:11:31;;;;;;;10.20;8.00;;;;;;;;;;5079972;28;20410;-82
2023/05/21 07:14:01;;;;;;;10.73;7.60;;;;;;;;;;5060250;28;20432;-81
2023/05/21 07:16:27;;;;;;;8.90;8.13;;;;;;;;;;5060901;28;20415;-82
2023/05/21 07:18:53;;;;;;;9.25;7.80;;;;;;;;;;5065998;28;20422;-81
2023/05/21 07:21:21;;;;;;;8.80;7.90;;;;;;;;;;5054692;28;20438;-81
2023/05/21 07:23:47;;;;;;;9.07;8.18;;;;;;;;;;5071788;28;20406;-81
2023/05/21 07:26:13;;;;;;;8.80;7.90;;;;;;;;;;5071249;28;20422;-81
2023/05/21 07:28:40;;;;;;;11.25;8.00;;;;;;;;;;5071252;28;20510;-79
2023/05/21 07:31:07;;;;;;;10.27;8.18;;;;;;;;;;5054914;28;20415;-79
2023/05/21 07:33:33;;;;;;;11.23;8.10;;;;;;;;;;5055093;28;20415;-79
2023/05/21 07:35:59;;;;;;;9.00;8.00;;;;;;;;;;5054961;28;20411;-79
2023/05/21 07:38:25;;;;;;;9.20;7.93;;;;;;;;;;5057213;28;20419;-79
2023/05/21 07:40:51;;;;;;;8.87;7.93;;;;;;;;;;5061066;28;20435;-79
2023/05/21 07:43:17;;;;;;;10.27;8.10;;;;;;;;;;5073810;28;20406;-78
2023/05/21 07:45:43;;;;;;;9.45;8.02;;;;;;;;;;5071600;28;20434;-81
2023/05/21 07:48:10;;;;;;;9.48;8.32;;;;;;;;;;5055025;28;20421;-81
2023/05/21 07:50:36;;;;;;;9.43;8.50;;;;;;;;;;5054753;28;20438;-81
2023/05/21 07:53:02;;;;;;;11.85;7.97;;;;;;;;;;5055074;28;20451;-81
2023/05/21 07:55:28;;;;;;;9.52;8.27;;;;;;;;;;5054956;28;20442;-81
2023/05/21 07:57:55;;;;;;;9.20;8.20;;;;;;;;;;5074050;28;20398;-81
2023/05/21 08:00:22;;;;;;;9.75;7.93;;;;;;;;;;5074835;28;20458;-82
2023/05/21 08:02:48;;;;;;;8.35;7.40;;;;;;;;;;5074258;28;20463;-81
2023/05/21 08:05:17;;;;;;;9.27;8.20;;;;;;;;;;5066129;28;20487;-81
2023/05/21 08:07:43;;;;;;;9.68;7.85;;;;;;;;;;5047457;28;20499;-81
2023/05/21 08:10:10;;;;;;;9.05;8.10;;;;;;;;;;5071900;28;20471;-81
2023/05/21 08:12:36;;;;;;;8.93;8.13;;;;;;;;;;5054623;28;20408;-81
2023/05/21 08:15:02;;;;;;;10.20;8.27;;;;;;;;;;5054856;28;20412;-81
2023/05/21 08:17:28;;;;;;;9.68;8.68;;;;;;;;;;5038693;28;20407;-90
2023/05/21 08:19:54;;;;;;;9.35;8.45;;;;;;;;;;5055508;28;20408;-90
2023/05/21 08:22:20;;;;;;;8.77;7.87;;;;;;;;;;5055510;28;20479;-90
2023/05/21 08:24:47;;;;;;;10.13;8.80;;;;;;;;;;5038590;28;20451;-91
2023/05/21 08:27:15;;;;;;;9.43;8.63;;;;;;;;;;5056436;28;20396;-90
2023/05/21 08:29:42;;;;;;;10.68;8.52;;;;;;;;;;5055015;28;20534;-90
2023/05/21 08:32:08;;;;;;;10.23;8.50;;;;;;;;;;5054678;28;20415;-90
2023/05/21 08:34:35;;;;;;;10.32;8.63;;;;;;;;;;5056168;28;20403;-82
2023/05/21 08:37:01;;;;;;;9.07;7.90;;;;;;;;;;5037558;28;20412;-82
2023/05/21 08:39:27;;;;;;;10.07;8.45;;;;;;;;;;5043829;28;20442;-81
2023/05/21 08:41:57;;;;;;;8.98;8.15;;;;;;;;;;5053998;28;20437;-81
2023/05/21 08:44:25;;;;;;;9.55;8.65;;;;;;;;;;5073229;28;20468;-82
2023/05/21 08:46:52;;;;;;;10.48;8.95;;;;;;;;;;5068777;28;20431;-81
2023/05/21 08:49:20;;;;;;;10.00;9.00;;;;;;;;;;5074959;28;20428;-82
2023/05/21 08:51:47;;;;;;;12.02;10.77;;;;;;;;;;5063062;28;20431;-81
2023/05/21 08:54:13;;;;;;;10.23;9.23;;;;;;;;;;5057508;28;20426;-82
2023/05/21 08:56:44;;;;;;;10.45;9.48;;;;;;;;;;5053017;28;20430;-81
2023/05/21 08:59:10;;;;;;;9.90;9.00;;;;;;;;;;5073172;28;20495;-82
2023/05/21 09:01:37;;;;;;;10.40;9.43;;;;;;;;;;5073233;28;20430;-82
2023/05/21 09:04:03;;;;;;;10.60;9.60;;;;;;;;;;5072341;28;20421;-82
2023/05/21 09:06:32;;;;;;;10.80;9.57;;;;;;;;;;5073628;28;20468;-82
2023/05/21 09:09:09;;;;;;;11.35;10.15;;;;;;;;;;5072948;28;20414;-82
2023/05/21 09:11:35;;;;;;;10.48;8.98;;;;;;;;;;5090331;28;20465;-82
2023/05/21 09:14:01;;;;;;;10.70;8.88;;;;;;;;;;5073022;28;20490;-82
2023/05/21 09:16:27;;;;;;;10.82;9.73;;;;;;;;;;5073022;28;20433;-82
2023/05/21 09:18:53;;;;;;;11.38;10.27;;;;;;;;;;5056535;28;20415;-82
2023/05/21 09:21:25;;;;;;;11.60;10.48;;;;;;;;;;5069884;28;20477;-82
2023/05/21 09:23:55;;;;;;;12.48;10.63;;;;;;;;;;5036712;28;20506;-82
2023/05/21 09:26:22;;;;;;;12.10;10.90;;;;;;;;;;5053103;28;20407;-79
2023/05/21 09:28:48;;;;;;;11.33;10.23;;;;;;;;;;5036664;28;20432;-79
2023/05/21 09:31:14;;;;;;;12.40;11.20;;;;;;;;;;5036637;28;20427;-80
2023/05/21 09:33:50;;;;;;;12.27;10.90;;;;;;;;;;5036034;28;20420;-80
2023/05/21 09:36:20;;;;;;;10.98;9.80;;;;;;;;;;5052835;28;20491;-79
2023/05/21 09:38:47;;;;;;;11.57;10.38;;;;;;;;;;5053148;28;20447;-79
2023/05/21 09:41:13;;;;;;;11.43;10.35;;;;;;;;;;5071682;28;20487;-83
2023/05/21 09:43:43;;;;;;;11.50;10.35;;;;;;;;;;5073357;28;20446;-82
2023/05/21 09:46:09;;;;;;;13.90;11.53;;;;;;;;;;5074278;28;20418;-83
2023/05/21 09:48:40;;;;;;;12.20;11.10;;;;;;;;;;5089342;28;20418;-83
2023/05/21 09:51:10;;;;;;;11.63;10.43;;;;;;;;;;5084801;28;20449;-82
2023/05/21 09:53:36;;;;;;;12.85;10.40;;;;;;;;;;5051333;28;20431;-84
2023/05/21 09:56:02;;;;;;;13.27;11.80;;;;;;;;;;5044869;23;20454;-89
2023/05/21 09:58:29;;;;;;;12.10;10.93;;;;;;;;;;4958047;28;20427;-89
2023/05/21 10:00:55;;;;;;;13.15;11.77;;;;;;;;;;4957952;28;20498;-90
2023/05/21 10:03:25;;;;;;;14.50;13.00;;;;;;;;;;4958440;28;20410;-89
2023/05/21 10:05:55;;;;;;;13.05;11.75;;;;;;;;;;4959065;28;20433;-91
2023/05/21 10:08:26;;;;;;;12.40;11.27;;;;;;;;;;4938485;29;20483;-89
2023/05/21 10:10:52;;;;;;;13.80;12.40;;;;;;;;;;4939060;29;20416;-90
2023/05/21 10:13:21;;;;;;;13.88;12.60;;;;;;;;;;4955073;28;20453;-88
2023/05/21 10:15:57;;;;;;;15.00;13.50;;;;;;;;;;4942020;29;20426;-88
2023/05/21 10:18:24;;;;;;;13.88;12.63;;;;;;;;;;4954471;29;20435;-88
2023/05/21 10:20:50;;;;;;;14.07;12.77;;;;;;;;;;4953706;28;20432;-89
2023/05/21 10:23:20;;;;;;;14.40;12.90;;;;;;;;;;4938927;29;20456;-89
2023/05/21 10:25:47;;;;;;;14.07;12.65;;;;;;;;;;4938686;29;20408;-88
2023/05/21 10:28:18;;;;;;;13.83;12.53;;;;;;;;;;4954696;29;20454;-89
2023/05/21 10:30:45;;;;;;;13.77;12.52;;;;;;;;;;4955072;29;20427;-88
2023/05/21 10:33:12;;;;;;;14.70;13.20;;;;;;;;;;4954064;29;20427;-88
2023/05/21 10:35:42;;;;;;;14.63;13.10;;;;;;;;;;4937887;29;20451;-89
2023/05/21 10:38:08;;;;;;;13.93;12.63;;;;;;;;;;4956090;28;20422;-88
2023/05/21 10:40:35;;;;;;;13.05;11.77;;;;;;;;;;4957229;28;20437;-89
2023/05/21 10:43:19;;;;;;;14.75;13.20;;;;;;;;;;4954319;29;20428;-90
2023/05/21 10:45:57;;;;;;;15.02;13.52;;;;;;;;;;4946565;28;20481;-88
2023/05/21 10:48:25;;;;;;;14.07;12.77;;;;;;;;;;4969221;28;20416;-88
2023/05/21 10:51:05;;;;;;;14.10;12.55;;;;;;;;;;4976054;28;20436;-87
2023/05/21 10:53:37;;;;;;;15.82;13.80;;;;;;;;;;4976866;28;20453;-87
2023/05/21 10:56:12;;;;;;;14.02;12.48;;;;;;;;;;4982375;28;20447;-87
2023/05/21 10:58:57;;;;;;;14.73;12.90;;;;;;;;;;4986734;28;20417;-87
2023/05/21 11:01:26;;;;;;;13.90;12.48;;;;;;;;;;4984778;28;20465;-88
2023/05/21 11:03:57;;;;;;;14.85;13.55;;;;;;;;;;4996166;28;20450;-87
2023/05/21 11:06:31;;;;;;;14.20;12.80;;;;;;;;;;5007012;28;20455;-88
2023/05/21 11:09:01;;;;;;;14.10;12.70;;;;;;;;;;4996179;28;20451;-89
2023/05/21 11:11:47;;;;;;;12.70;10.68;;;;;;;;;;4996805;28;20185;-88
2023/05/21 11:14:34;;;;;;;13.07;11.77;;;;;;;;;;4997546;28;20188;-87
2023/05/21 11:17:08;;;;;;;14.18;11.77;;;;;;;;;;5009707;28;20185;-90
2023/05/21 11:19:35;;;;;;;12.57;11.25;;;;;;;;;;4994098;28;20169;-89
2023/05/21 11:22:04;;;;;;;13.63;12.05;;;;;;;;;;4979799;28;20210;-89
2023/05/21 11:24:36;;;;;;;12.80;11.50;;;;;;;;;;4996781;28;20205;-90
2023/05/21 11:27:05;;;;;;;12.98;11.68;;;;;;;;;;4996850;28;20173;-89
2023/05/21 11:29:39;;;;;;;14.23;12.17;;;;;;;;;;4996711;28;20427;-89
2023/05/21 11:32:07;;;;;;;13.85;12.50;;;;;;;;;;4989427;28;20436;-90
2023/05/21 11:34:44;;;;;;;13.15;11.20;;;;;;;;;;4980611;28;20432;-88
2023/05/21 11:37:17;;;;;;;13.68;12.27;;;;;;;;;;4997446;28;20181;-88
2023/05/21 11:39:49;;;;;;;12.88;10.82;;;;;;;;;;5010112;28;20263;-89
2023/05/21 11:42:31;;;;;;;12.48;10.88;;;;;;;;;;5000284;28;20201;-89
2023/05/21 11:45:00;;;;;;;10.90;9.80;;;;;;;;;;5000215;28;20173;-87
2023/05/21 11:47:30;;;;;;;12.70;11.25;;;;;;;;;;5005438;28;20180;-87
2023/05/21 11:49:58;;;;;;;12.30;10.77;;;;;;;;;;4999802;28;20181;-88
2023/05/21 11:52:25;;;;;;;11.27;10.25;;;;;;;;;;4999296;28;20263;-88
2023/05/21 11:54:56;;;;;;;16.60;11.15;;;;;;;;;;4999353;28;20427;-89
2023/05/21 11:57:25;;;;;;;11.60;10.43;;;;;;;;;;4999221;28;20260;-87
2023/05/21 11:59:55;;;;;;;12.80;11.40;;;;;;;;;;4995262;28;20248;-89
2023/05/21 12:02:21;;;;;;;11.98;10.55;;;;;;;;;;5016083;28;20181;-89
2023/05/21 12:04:49;;;;;;;13.10;11.70;;;;;;;;;;5011324;28;20223;-88
2023/05/21 12:07:18;;;;;;;14.57;11.93;;;;;;;;;;4999771;28;20183;-89
2023/05/21 12:09:45;;;;;;;15.73;10.90;;;;;;;;;;4999779;28;20173;-88
2023/05/21 12:12:15;;;;;;;20.55;11.63;;;;;;;;;;4995971;28;20182;-88
2023/05/21 12:14:51;;;;;;;11.80;10.68;;;;;;;;;;4980768;28;20189;-88
2023/05/21 12:17:21;;;;;;;13.07;11.68;;;;;;;;;;5013618;28;20185;-89
2023/05/21 12:19:55;;;;;;;12.88;11.75;;;;;;;;;;5019061;28;20181;-88
2023/05/21 12:22:26;;;;;;;12.90;11.60;;;;;;;;;;5019501;28;20259;-90
2023/05/21 12:25:09;;;;;;;19.20;11.20;;;;;;;;;;5018825;28;20181;-90
2023/05/21 12:27:38;;;;;;;12.70;11.07;;;;;;;;;;5011195;28;20188;-91
2023/05/21 12:30:04;;;;;;;12.77;11.35;;;;;;;;;;5015595;28;20192;-89
2023/05/21 12:32:30;;;;;;;12.02;10.80;;;;;;;;;;5016440;28;20180;-90
2023/05/21 12:34:59;;;;;;;12.25;11.10;;;;;;;;;;5015301;28;20173;-90
2023/05/21 12:37:26;;;;;;;15.85;10.60;;;;;;;;;;5016228;28;20201;-88
2023/05/21 12:39:52;;;;;;;12.45;11.15;;;;;;;;;;5015247;28;20173;-89
2023/05/21 12:42:26;;;;;;;12.98;11.25;;;;;;;;;;5014729;28;20418;-89
2023/05/21 12:45:10;;;;;;;13.57;12.33;;;;;;;;;;5012919;28;20407;-87
2023/05/21 12:47:36;;;;;;;11.77;10.68;;;;;;;;;;4988759;28;20181;-87
2023/05/21 12:50:12;;;;;;;12.93;11.63;;;;;;;;;;4998466;28;20453;-87
2023/05/21 12:52:41;;;;;;;11.85;10.63;;;;;;;;;;4997390;28;20272;-87
2023/05/21 12:55:39;;;;;;;11.60;10.60;;;;;;;;;;5004701;28;20180;-91
2023/05/21 12:58:07;;;;;;;13.02;11.75;;;;;;;;;;4977635;28;20507;-87
2023/05/21 13:00:33;;;;;;;13.23;11.88;;;;;;;;;;4977713;28;20440;-86
2023/05/21 13:03:04;;;;;;;12.43;11.23;;;;;;;;;;4977892;28;20416;-88
2023/05/21 13:05:33;;;;;;;14.43;12.43;;;;;;;;;;4994111;28;20415;-87
2023/05/21 13:08:02;;;;;;;14.32;12.32;;;;;;;;;;4998095;28;20493;-88
2023/05/21 13:10:28;;;;;;;14.52;13.05;;;;;;;;;;4988886;28;20436;-87
2023/05/21 13:12:54;;;;;;;14.00;12.60;;;;;;;;;;4985217;28;20451;-90
2023/05/21 13:15:40;;;;;;;;;;;;;;;;;;;;;
2023/05/21 13:18:16;;;;;;;13.45;12.18;;;;;;;;;;4978932;28;20423;-87
2023/05/21 13:20:42;;;;;;;13.55;12.25;;;;;;;;;;4976216;28;20424;-87
2023/05/21 13:23:10;;;;;;;12.35;11.25;;;;;;;;;;4977810;28;20416;-87
2023/05/21 13:25:37;;;;;;;13.90;12.50;;;;;;;;;;4961028;28;20439;-87
2023/05/21 13:28:13;;;;;;;14.15;12.75;;;;;;;;;;4972330;28;20420;-86
2023/05/21 13:30:43;;;;;;;13.30;12.10;;;;;;;;;;4969708;28;20421;-87
2023/05/21 13:33:12;;;;;;;13.03;11.73;;;;;;;;;;4977280;28;20405;-86
2023/05/21 13:35:50;;;;;;;14.02;12.00;;;;;;;;;;4961391;28;20427;-87
2023/05/21 13:38:16;;;;;;;13.48;12.18;;;;;;;;;;4988809;28;20496;-87
2023/05/21 13:40:42;;;;;;;12.75;11.48;;;;;;;;;;4996772;28;20431;-87
2023/05/21 13:43:11;;;;;;;13.13;11.82;;;;;;;;;;4996528;28;20399;-87
2023/05/21 13:45:40;;;;;;;13.52;12.07;;;;;;;;;;4996210;28;20411;-87
2023/05/21 13:48:15;;;;;;;14.20;12.70;;;;;;;;;;4995585;28;20407;-87
2023/05/21 13:50:41;;;;;;;14.85;13.18;;;;;;;;;;4989032;28;20410;-87
2023/05/21 13:53:07;;;;;;;13.67;12.47;;;;;;;;;;4996693;28;20423;-86
2023/05/21 13:55:36;;;;;;;13.95;12.30;;;;;;;;;;4978927;28;20427;-87
2023/05/21 13:58:02;;;;;;;13.60;12.18;;;;;;;;;;4977426;28;20428;-87
2023/05/21 14:00:28;;;;;;;12.98;11.60;;;;;;;;;;4976700;28;20444;-87
2023/05/21 14:03:05;;;;;;;13.73;12.40;;;;;;;;;;4976785;28;20401;-88
2023/05/21 14:05:34;;;;;;;14.07;12.70;;;;;;;;;;4976715;28;20519;-87
2023/05/21 14:08:00;;;;;;;13.90;12.50;;;;;;;;;;4976939;28;20503;-87
2023/05/21 14:10:26;;;;;;;14.77;13.07;;;;;;;;;;4961040;28;20428;-87
2023/05/21 14:12:52;;;;;;;14.43;13.10;;;;;;;;;;4976639;28;20416;-86
2023/05/21 14:15:21;;;;;;;14.53;13.07;;;;;;;;;;4988350;28;20452;-86
2023/05/21 14:17:47;;;;;;;14.15;12.75;;;;;;;;;;4995685;28;20418;-86
2023/05/21 14:20:13;;;;;;;13.40;11.70;;;;;;;;;;4995859;28;20441;-87
2023/05/21 14:22:41;;;;;;;13.70;12.35;;;;;;;;;;4996344;28;20402;-87
2023/05/21 14:25:07;;;;;;;13.25;11.95;;;;;;;;;;4994796;28;20439;-87
2023/05/21 14:27:36;;;;;;;15.13;13.68;;;;;;;;;;4995585;28;20411;-86
2023/05/21 14:30:05;;;;;;;12.93;11.70;;;;;;;;;;4995558;28;20399;-87
2023/05/21 14:32:39;;;;;;;12.52;11.43;;;;;;;;;;4995754;28;20414;-88
2023/05/21 14:35:08;;;;;;;14.25;12.85;;;;;;;;;;4995712;28;20404;-86
2023/05/21 14:37:41;;;;;;;13.48;12.20;;;;;;;;;;4995956;28;20406;-87